Time;durP1;ratioP1;P1;durP2;ratioP2;P2;SDS_P1;SDS_P2;PMS_P1;PMS_P2;Temp;Humidity;BMP_temperature;BMP_pressure;BME280_temperature;BME280_humidity;BME280_pressure;Samples;Min_cycle;Max_cycle;Signal;HPM_P1;HPM_P2
2023/01/09 00:01:41;;;;;;;4.93;1.70;;;;;;;8.00;100.00;99253.88;2615467;36;20057;-59
2023/01/09 00:04:10;;;;;;;1.98;1.40;;;;;;;8.02;100.00;99256.38;2614952;31;20030;-60
2023/01/09 00:06:39;;;;;;;4.00;2.03;;;;;;;7.92;100.00;99256.53;2615730;36;20081;-59
2023/01/09 00:09:08;;;;;;;4.63;1.95;;;;;;;7.87;100.00;99258.81;2615486;36;20041;-60
2023/01/09 00:11:36;;;;;;;5.38;1.92;;;;;;;7.86;100.00;99258.00;2615381;36;20038;-60
2023/01/09 00:14:05;;;;;;;2.17;1.63;;;;;;;7.83;100.00;99255.63;2615130;36;20026;-59
2023/01/09 00:16:39;;;;;;;2.55;2.00;;;;;;;7.84;100.00;99261.81;2571176;36;15038604;-59
2023/01/09 00:19:07;;;;;;;5.13;2.17;;;;;;;7.79;100.00;99261.44;2614434;36;20031;-59
2023/01/09 00:21:37;;;;;;;4.40;1.58;;;;;;;7.85;100.00;99266.19;2678243;31;165265;-57
2023/01/09 00:24:06;;;;;;;3.67;1.80;;;;;;;7.82;100.00;99271.88;2615347;31;20034;-59
2023/01/09 00:26:37;;;;;;;4.10;1.55;;;;;;;7.80;100.00;99271.16;2614794;36;20034;-58
2023/01/09 00:29:06;;;;;;;2.83;1.45;;;;;;;7.69;100.00;99275.78;2615527;36;20030;-59
2023/01/09 00:31:37;;;;;;;3.58;1.83;;;;;;;7.61;100.00;99272.19;2646273;36;3009430;-58
2023/01/09 00:34:09;;;;;;;2.30;1.42;;;;;;;7.65;100.00;99266.38;2208820;36;15037134;-59
2023/01/09 00:36:37;;;;;;;3.67;1.60;;;;;;;7.71;100.00;99260.41;2616347;36;20509;-59
2023/01/09 00:39:06;;;;;;;4.03;1.65;;;;;;;7.84;100.00;99264.50;2614309;36;20038;-59
2023/01/09 00:41:38;;;;;;;3.55;1.90;;;;;;;7.71;100.00;99256.88;2615098;36;20053;-59
2023/01/09 00:44:11;;;;;;;3.13;1.55;;;;;;;7.66;100.00;99269.91;2615489;36;20030;-59
2023/01/09 00:46:47;;;;;;;2.85;1.20;;;;;;;7.67;100.00;99259.03;2615410;36;20027;-58
2023/01/09 00:49:18;;;;;;;3.03;1.60;;;;;;;7.63;100.00;99270.22;2615487;36;20030;-59
2023/01/09 00:51:46;;;;;;;2.83;1.40;;;;;;;7.53;100.00;99267.63;2615240;31;20030;-58
2023/01/09 00:54:20;;;;;;;4.27;1.57;;;;;;;7.54;100.00;99266.66;2616229;32;20559;-59
2023/01/09 00:56:50;;;;;;;3.35;1.67;;;;;;;7.52;100.00;99268.63;2614815;36;20307;-57
2023/01/09 00:59:18;;;;;;;4.07;1.50;;;;;;;7.50;100.00;99273.28;2614674;36;20041;-58
2023/01/09 01:01:49;;;;;;;4.40;1.98;;;;;;;7.43;100.00;99272.22;2615729;36;20555;-59
2023/01/09 01:09:39;;;;;;;2.97;1.13;;;;;;;7.31;100.00;99277.00;2615583;36;20034;-57
2023/01/09 01:12:08;;;;;;;2.30;1.33;;;;;;;7.19;100.00;99273.72;2615905;31;20023;-59
2023/01/09 01:14:37;;;;;;;3.25;1.58;;;;;;;7.18;100.00;99277.38;2615180;36;20859;-56
2023/01/09 01:17:09;;;;;;;3.85;1.60;;;;;;;7.15;100.00;99288.38;2632122;36;20565;-59
2023/01/09 01:19:38;;;;;;;3.35;1.67;;;;;;;7.01;100.00;99285.25;2615487;31;20420;-59
2023/01/09 01:22:06;;;;;;;3.85;1.63;;;;;;;7.13;100.00;99277.00;2616256;36;20030;-59
2023/01/09 01:24:35;;;;;;;7.30;1.93;;;;;;;7.05;100.00;99292.97;2614524;36;20030;-59
2023/01/09 01:27:03;;;;;;;2.45;1.60;;;;;;;7.03;100.00;99292.28;2614570;31;20311;-59
2023/01/09 01:29:32;;;;;;;4.13;1.80;;;;;;;7.04;100.00;99296.63;2615918;36;20035;-59
2023/01/09 01:32:00;;;;;;;5.05;1.90;;;;;;;7.06;100.00;99291.97;2615909;36;20034;-58
2023/01/09 01:34:32;;;;;;;5.57;1.92;;;;;;;7.24;100.00;99300.00;2615665;31;20034;-58
2023/01/09 01:37:03;;;;;;;4.60;1.67;;;;;;;7.12;100.00;99286.00;2615792;31;20038;-58
2023/01/09 01:39:31;;;;;;;3.05;1.77;;;;;;;6.94;100.00;99294.88;2615668;36;20042;-58
2023/01/09 01:41:59;;;;;;;3.70;1.90;;;;;;;7.00;100.00;99294.25;2617878;36;20031;-60
2023/01/09 01:44:58;;;;;;;3.72;1.55;;;;;;;6.89;100.00;99286.47;2615674;36;20030;-58
2023/01/09 01:47:35;;;;;;;6.07;1.53;;;;;;;6.89;100.00;99291.81;2614640;36;20034;-59
2023/01/09 01:50:10;;;;;;;3.90;1.70;;;;;;;6.86;100.00;99292.13;2614071;36;20378;-58
2023/01/09 01:52:39;;;;;;;6.10;1.90;;;;;;;6.80;100.00;99298.03;2614780;36;20038;-56
2023/01/09 01:55:10;;;;;;;8.88;2.28;;;;;;;6.81;100.00;99297.91;2615614;36;20603;-58
2023/01/09 01:57:41;;;;;;;5.80;2.15;;;;;;;6.64;100.00;99299.56;2615944;36;20038;-57
2023/01/09 02:00:13;;;;;;;5.45;2.00;;;;;;;6.69;100.00;99303.63;2615806;36;20027;-57
2023/01/09 02:02:44;;;;;;;3.53;2.08;;;;;;;6.63;100.00;99300.53;2615558;36;20065;-58
2023/01/09 02:05:15;;;;;;;3.33;2.13;;;;;;;6.51;100.00;99304.41;2614209;36;20030;-59
2023/01/09 02:07:43;;;;;;;4.28;2.22;;;;;;;6.51;100.00;99299.06;2615982;36;20516;-59
2023/01/09 02:10:12;;;;;;;3.13;2.22;;;;;;;6.51;100.00;99312.44;2614998;36;20039;-58
2023/01/09 02:12:40;;;;;;;8.77;2.37;;;;;;;6.54;100.00;99304.13;2615928;36;20034;-58
2023/01/09 02:15:12;;;;;;;5.70;2.38;;;;;;;6.47;100.00;99309.19;2615977;36;20306;-58
2023/01/09 02:18:02;;;;;;;5.95;2.42;;;;;;;6.51;100.00;99304.41;2615636;36;20026;-59
2023/01/09 02:20:54;;;;;;;5.68;2.80;;;;;;;6.55;100.00;99311.16;2615445;36;20578;-58
2023/01/09 02:24:03;;;;;;;5.45;2.60;;;;;;;6.37;100.00;99318.25;2616665;36;20030;-58
2023/01/09 02:26:59;;;;;;;5.72;3.00;;;;;;;6.38;100.00;99315.44;2632446;36;20034;-58
2023/01/09 02:30:03;;;;;;;5.30;2.67;;;;;;;6.35;100.00;99320.25;2616109;31;20038;-59
2023/01/09 02:32:59;;;;;;;5.93;3.53;;;;;;;6.25;100.00;99322.94;2616571;36;20042;-58
2023/01/09 02:35:51;;;;;;;6.32;3.65;;;;;;;6.21;100.00;99330.41;2616437;36;20058;-58
2023/01/09 02:38:28;;;;;;;6.78;4.13;;;;;;;6.26;100.00;99327.31;2616551;36;20030;-58
2023/01/09 02:41:03;;;;;;;11.50;4.68;;;;;;;6.28;100.00;99331.50;2616357;36;20034;-59
2023/01/09 02:43:33;;;;;;;8.38;4.55;;;;;;;6.24;100.00;99332.81;2616798;36;20034;-58
2023/01/09 02:46:01;;;;;;;;;;;;;;;6.31;100.00;99338.38;2616512;36;20034;-59
2023/01/09 02:48:34;;;;;;;8.02;5.53;;;;;;;6.21;100.00;99325.06;2616144;36;19938;-59
2023/01/09 02:51:13;;;;;;;8.52;5.25;;;;;;;6.24;100.00;99327.47;2616803;36;20622;-58
2023/01/09 02:54:05;;;;;;;10.27;5.53;;;;;;;6.23;100.00;99317.75;2616846;36;20065;-59
2023/01/09 02:56:46;;;;;;;13.00;5.50;;;;;;;6.21;100.00;99319.72;2616231;36;20030;-58
2023/01/09 02:59:25;;;;;;;11.70;6.57;;;;;;;6.14;100.00;99318.63;2616813;36;20035;-58
2023/01/09 03:02:11;;;;;;;12.23;6.23;;;;;;;6.12;100.00;99317.91;2615919;36;20038;-59
2023/01/09 03:04:53;;;;;;;10.07;6.70;;;;;;;6.16;100.00;99315.81;2615722;36;20026;-59
2023/01/09 03:07:27;;;;;;;11.32;6.95;;;;;;;6.14;100.00;99323.97;2616884;36;20562;-58
2023/01/09 03:10:05;;;;;;;11.05;6.70;;;;;;;6.14;100.00;99323.97;2616359;36;20023;-59
2023/01/09 03:12:34;;;;;;;12.60;6.90;;;;;;;6.03;100.00;99326.81;2616646;36;20073;-58
2023/01/09 03:15:06;;;;;;;10.05;6.75;;;;;;;6.11;100.00;99329.59;2616478;36;20034;-58
2023/01/09 03:17:40;;;;;;;11.75;7.18;;;;;;;6.10;100.00;99326.09;2616523;36;20118;-57
2023/01/09 03:20:14;;;;;;;12.65;6.82;;;;;;;6.13;100.00;99322.28;2616126;36;20061;-57
2023/01/09 03:22:47;;;;;;;10.68;6.78;;;;;;;6.06;100.00;99323.84;2616695;36;20038;-58
2023/01/09 03:25:17;;;;;;;14.70;6.95;;;;;;;6.14;100.00;99330.16;2616034;36;20045;-58
2023/01/09 03:27:47;;;;;;;11.68;6.85;;;;;;;6.17;100.00;99322.81;2616303;36;20041;-58
2023/01/09 03:30:16;;;;;;;13.73;6.78;;;;;;;6.04;100.00;99321.31;2616693;36;20031;-56
2023/01/09 03:32:45;;;;;;;9.80;6.13;;;;;;;6.16;100.00;99330.00;2616648;36;20435;-58
2023/01/09 03:35:16;;;;;;;12.52;6.78;;;;;;;6.14;100.00;99332.00;2617325;31;24806;-58
2023/01/09 03:37:45;;;;;;;12.32;6.75;;;;;;;6.18;100.00;99332.53;2616750;36;20035;-58
2023/01/09 03:40:13;;;;;;;11.55;5.97;;;;;;;6.11;100.00;99327.78;2616095;36;20598;-57
2023/01/09 03:42:42;;;;;;;12.52;6.65;;;;;;;6.11;100.00;99325.09;2616202;36;20030;-57
2023/01/09 03:45:11;;;;;;;11.77;6.18;;;;;;;6.15;100.00;99320.28;2617188;36;20443;-58
2023/01/09 03:47:39;;;;;;;14.25;6.38;;;;;;;6.12;100.00;99318.78;2616258;36;20030;-58
2023/01/09 03:50:09;;;;;;;11.43;6.45;;;;;;;6.14;100.00;99323.97;2616384;31;20022;-58
2023/01/09 03:52:40;;;;;;;12.27;6.28;;;;;;;6.10;100.00;99331.44;2616651;36;20038;-59
2023/01/09 03:55:10;;;;;;;14.15;6.00;;;;;;;5.94;100.00;99326.66;2615330;31;20030;-58
2023/01/09 03:57:38;;;;;;;13.30;6.20;;;;;;;6.10;100.00;99334.09;2616545;36;20042;-58
2023/01/09 04:00:08;;;;;;;12.40;5.38;;;;;;;6.08;100.00;99324.53;2616150;36;20038;-59
2023/01/09 04:02:36;;;;;;;9.52;5.68;;;;;;;6.05;100.00;99325.69;2616848;36;20027;-59
2023/01/09 04:05:05;;;;;;;13.60;5.93;;;;;;;6.14;100.00;99330.16;2614903;36;20042;-58
2023/01/09 04:07:33;;;;;;;13.30;5.60;;;;;;;6.04;100.00;99325.84;2615678;36;20520;-59
2023/01/09 04:10:05;;;;;;;11.25;5.85;;;;;;;5.92;100.00;99330.47;2615687;31;20038;-58
2023/01/09 04:12:34;;;;;;;10.85;5.95;;;;;;;5.96;100.00;99331.84;2615405;36;20554;-58
2023/01/09 04:15:02;;;;;;;9.60;5.00;;;;;;;5.89;100.00;99331.59;2615867;36;20041;-59
2023/01/09 04:17:30;;;;;;;13.20;5.50;;;;;;;5.87;100.00;99336.22;2616455;31;20023;-57
2023/01/09 04:19:59;;;;;;;11.73;4.83;;;;;;;5.87;100.00;99332.72;2615467;36;20033;-59
2023/01/09 04:22:27;;;;;;;11.07;5.93;;;;;;;5.89;100.00;99336.94;2615607;36;20030;-58
2023/01/09 04:24:58;;;;;;;10.82;5.40;;;;;;;5.88;100.00;99329.91;2615875;36;20038;-58
2023/01/09 04:27:29;;;;;;;7.30;4.70;;;;;;;5.83;100.00;99329.50;2615056;36;20459;-58
2023/01/09 04:29:57;;;;;;;12.15;4.75;;;;;;;5.86;100.00;99331.88;2615950;36;20034;-58
2023/01/09 04:32:26;;;;;;;11.55;5.80;;;;;;;5.85;100.00;99335.53;2615331;36;20030;-58
2023/01/09 04:34:54;;;;;;;8.05;4.68;;;;;;;5.79;100.00;99341.44;2615882;31;20041;-58
2023/01/09 04:37:23;;;;;;;9.43;4.53;;;;;;;5.87;100.00;99344.22;2615872;31;20022;-58
2023/01/09 04:39:54;;;;;;;13.48;4.63;;;;;;;5.79;100.00;99347.63;2616293;31;20034;-58
2023/01/09 04:42:23;;;;;;;9.15;4.53;;;;;;;5.79;100.00;99362.81;2615485;36;20026;-56
2023/01/09 04:44:54;;;;;;;8.65;4.20;;;;;;;5.78;100.00;99353.09;2615582;36;20726;-58
2023/01/09 04:47:23;;;;;;;8.57;3.92;;;;;;;5.68;100.00;99355.78;2615593;31;20150;-58
2023/01/09 04:49:51;;;;;;;9.85;4.53;;;;;;;5.66;100.00;99352.41;2615994;36;20038;-58
2023/01/09 04:52:20;;;;;;;9.30;3.80;;;;;;;5.68;100.00;99347.75;2615700;36;20527;-59
2023/01/09 04:54:48;;;;;;;9.13;4.10;;;;;;;5.70;100.00;99353.00;2615013;36;20037;-58
2023/01/09 04:57:16;;;;;;;12.18;4.20;;;;;;;5.67;100.00;99351.44;2614924;36;20563;-59
2023/01/09 04:59:45;;;;;;;6.38;3.70;;;;;;;5.70;100.00;99345.81;2615508;36;20037;-59
2023/01/09 05:02:16;;;;;;;10.80;4.40;;;;;;;5.81;100.00;99349.31;2615479;36;20673;-59
2023/01/09 05:04:44;;;;;;;12.27;5.03;;;;;;;5.85;100.00;99351.56;2615180;36;20443;-59
2023/01/09 05:07:12;;;;;;;7.13;3.67;;;;;;;5.64;100.00;99342.84;2616137;36;20027;-58
2023/01/09 05:09:41;;;;;;;11.35;4.38;;;;;;;5.56;100.00;99348.91;2615190;36;20435;-58
2023/01/09 05:12:10;;;;;;;8.57;3.95;;;;;;;5.57;100.00;99355.94;2615470;36;20033;-58
2023/01/09 05:14:40;;;;;;;12.20;3.90;;;;;;;5.69;100.00;99356.63;2615473;36;20435;-56
2023/01/09 05:17:09;;;;;;;10.30;4.63;;;;;;;5.69;100.00;99336.09;2615593;36;20042;-59
2023/01/09 05:19:41;;;;;;;8.95;5.28;;;;;;;5.80;100.00;99348.47;2615210;36;20030;-59
2023/01/09 05:22:09;;;;;;;10.05;4.05;;;;;;;5.76;100.00;99353.25;2615955;31;20137;-58
2023/01/09 05:24:44;;;;;;;9.13;5.17;;;;;;;5.76;100.00;99341.75;2615038;54;20061;-59
2023/01/09 05:27:13;;;;;;;8.60;4.03;;;;;;;5.83;100.00;99345.53;2615150;36;20027;-58
2023/01/09 05:29:41;;;;;;;8.05;3.50;;;;;;;5.91;100.00;99334.94;2614942;36;20041;-56
2023/01/09 05:32:09;;;;;;;12.20;3.92;;;;;;;5.94;100.00;99340.00;2615329;36;20034;-58
2023/01/09 05:34:40;;;;;;;6.38;3.45;;;;;;;5.83;100.00;99342.84;2615781;36;20031;-56
2023/01/09 05:37:09;;;;;;;10.35;3.40;;;;;;;5.90;100.00;99337.75;2615953;36;20042;-58
2023/01/09 05:39:37;;;;;;;10.75;4.15;;;;;;;5.89;100.00;99331.59;2615372;36;20035;-59
2023/01/09 05:42:06;;;;;;;18.10;4.68;;;;;;;5.99;100.00;99336.94;2614953;31;20029;-58
2023/01/09 05:44:34;;;;;;;10.70;4.22;;;;;;;5.96;100.00;99337.19;2615847;31;20589;-60
2023/01/09 05:47:02;;;;;;;10.13;3.33;;;;;;;5.90;100.00;99333.28;2615068;31;20030;-57
2023/01/09 05:49:30;;;;;;;8.25;3.22;;;;;;;5.87;100.00;99338.88;2615071;36;20351;-60
2023/01/09 05:52:01;;;;;;;10.40;3.45;;;;;;;5.99;100.00;99326.25;2615642;36;20053;-59
2023/01/09 05:54:30;;;;;;;6.65;3.35;;;;;;;6.07;100.00;99325.53;2614670;36;20527;-57
2023/01/09 05:56:58;;;;;;;6.63;3.95;;;;;;;6.03;100.00;99322.31;2615317;36;20034;-59
2023/01/09 05:59:27;;;;;;;11.80;3.63;;;;;;;6.07;100.00;99320.19;2617023;36;20339;-59
2023/01/09 06:01:55;;;;;;;10.48;4.47;;;;;;;6.13;100.00;99317.78;2615161;36;20035;-58
2023/01/09 06:04:24;;;;;;;10.57;3.80;;;;;;;6.14;100.00;99322.13;2616307;31;20085;-58
2023/01/09 06:06:52;;;;;;;10.38;4.03;;;;;;;6.18;100.00;99322.69;2616723;31;20035;-55
2023/01/09 06:09:23;;;;;;;17.65;4.43;;;;;;;6.19;100.00;99329.72;2616672;31;20031;-58
2023/01/09 06:11:53;;;;;;;14.23;3.75;;;;;;;6.22;100.00;99326.75;2616442;36;20042;-58
2023/01/09 06:14:21;;;;;;;13.55;3.97;;;;;;;6.24;100.00;99318.59;2615982;36;20911;-60
2023/01/09 06:16:50;;;;;;;9.50;3.77;;;;;;;6.34;100.00;99314.03;2616455;36;20440;-57
2023/01/09 06:22:04;;;;;;;7.40;2.75;;;;;;;6.33;100.00;99315.06;2619380;36;20508;-58
2023/01/09 06:24:32;;;;;;;15.75;4.25;;;;;;;6.40;100.00;99318.78;2620048;36;20057;-59
2023/01/09 06:27:00;;;;;;;12.50;3.55;;;;;;;6.35;100.00;99314.91;2619623;36;20030;-59
2023/01/09 06:29:29;;;;;;;21.70;5.75;;;;;;;6.30;100.00;99308.16;2619606;36;20027;-55
2023/01/09 06:31:57;;;;;;;24.23;3.97;;;;;;;6.42;100.00;99318.66;2618717;36;20122;-55
2023/01/09 06:34:25;;;;;;;13.82;4.30;;;;;;;6.44;100.00;99314.00;2619356;36;20029;-56
2023/01/09 06:36:54;;;;;;;16.75;4.85;;;;;;;6.54;100.00;99306.78;2619037;36;20592;-58
2023/01/09 06:39:25;;;;;;;18.15;5.10;;;;;;;6.46;100.00;99312.03;2619744;36;20026;-59
2023/01/09 06:41:53;;;;;;;18.83;6.68;;;;;;;6.58;100.00;99310.84;2619663;36;20038;-60
2023/01/09 06:44:21;;;;;;;13.55;4.18;;;;;;;6.53;100.00;99314.97;2619239;36;20034;-59
2023/01/09 06:46:50;;;;;;;19.33;3.92;;;;;;;6.59;100.00;99312.50;2619766;36;20065;-58
2023/01/09 06:49:22;;;;;;;16.95;4.47;;;;;;;6.66;100.00;99312.78;2619350;36;21093;-59
2023/01/09 06:51:50;;;;;;;17.70;4.15;;;;;;;6.68;100.00;99309.94;2619979;36;20030;-59
2023/01/09 06:54:19;;;;;;;13.73;3.78;;;;;;;6.84;100.00;99305.63;2619376;36;20041;-58
2023/01/09 06:56:50;;;;;;;10.35;4.25;;;;;;;6.79;100.00;99312.44;2619486;36;20029;-59
2023/01/09 06:59:18;;;;;;;13.77;3.38;;;;;;;6.75;100.00;99311.03;2619597;36;20072;-59
2023/01/09 07:01:46;;;;;;;8.85;3.60;;;;;;;6.59;100.00;99307.16;2620236;36;20038;-58
2023/01/09 07:04:16;;;;;;;14.93;3.83;;;;;;;6.63;100.00;99308.56;2620198;36;20578;-59
2023/01/09 07:06:44;;;;;;;;;;;;;;;6.53;100.00;99299.75;2620431;36;20030;-61
2023/01/09 07:12:06;;;;;;;16.90;4.10;;;;;;;6.65;100.00;99311.09;2620302;31;20030;-56
2023/01/09 07:14:42;;;;;;;10.23;3.67;;;;;;;6.63;100.00;99311.22;2620412;36;20037;-58
2023/01/09 07:17:13;;;;;;;13.68;3.08;;;;;;;6.81;100.00;99318.47;2621697;38;20431;-58
2023/01/09 07:19:42;;;;;;;9.32;3.65;;;;;;;6.84;100.00;99323.50;2619751;36;20042;-57
2023/01/09 07:22:11;;;;;;;15.55;4.05;;;;;;;6.82;100.00;99317.47;2618760;36;20072;-58
2023/01/09 07:24:40;;;;;;;8.80;3.13;;;;;;;6.70;100.00;99329.34;2619545;36;20037;-59
2023/01/09 07:27:11;;;;;;;9.23;3.10;;;;;;;6.74;100.00;99328.06;2619422;36;20065;-59
2023/01/09 07:29:39;;;;;;;11.88;4.20;;;;;;;6.74;100.00;99320.03;2618811;36;20022;-59
2023/01/09 07:32:07;;;;;;;14.05;4.68;;;;;;;6.67;100.00;99325.16;2617225;36;20038;-58
2023/01/09 07:34:36;;;;;;;11.70;3.58;;;;;;;6.69;100.00;99317.00;2615403;36;20090;-59
2023/01/09 07:37:04;;;;;;;12.10;4.78;;;;;;;6.67;100.00;99314.47;2612692;36;20023;-59
2023/01/09 07:39:32;;;;;;;8.63;3.65;;;;;;;6.69;100.00;99307.13;2614541;36;20566;-58
2023/01/09 07:42:01;;;;;;;15.18;4.68;;;;;;;6.66;100.00;99313.59;2613480;36;20030;-59
2023/01/09 07:44:32;;;;;;;16.10;4.88;;;;;;;6.82;100.00;99317.47;2614350;31;20034;-58
2023/01/09 07:47:01;;;;;;;13.20;4.50;;;;;;;6.89;100.00;99323.06;2616454;31;20030;-58
2023/01/09 07:49:29;;;;;;;19.67;4.80;;;;;;;6.90;100.00;99325.56;2615698;36;20026;-59
2023/01/09 07:51:58;;;;;;;8.43;3.72;;;;;;;6.95;100.00;99331.31;2616024;36;20150;-60
2023/01/09 07:54:27;;;;;;;14.88;5.43;;;;;;;6.88;100.00;99326.75;2614991;31;20030;-58
2023/01/09 07:56:56;;;;;;;8.75;3.40;;;;;;;6.88;100.00;99329.41;2612334;36;20034;-58
2023/01/09 07:59:25;;;;;;;13.90;4.35;;;;;;;6.88;100.00;99326.75;2615832;36;20106;-58
2023/01/09 08:01:55;;;;;;;9.70;4.15;;;;;;;6.97;100.00;99326.66;2615570;31;20539;-59
2023/01/09 08:04:24;;;;;;;11.00;4.13;;;;;;;7.00;100.00;99331.69;2614480;36;20046;-58
2023/01/09 08:06:52;;;;;;;11.73;3.88;;;;;;;7.13;100.00;99330.50;2615546;31;20041;-59
2023/01/09 08:09:21;;;;;;;10.43;4.05;;;;;;;7.14;100.00;99316.13;2615410;36;20042;-58
2023/01/09 08:11:49;;;;;;;10.95;4.65;;;;;;;7.06;100.00;99318.72;2615840;36;20050;-58
2023/01/09 08:14:18;;;;;;;7.43;3.40;;;;;;;7.11;100.00;99317.28;2615393;36;20069;-58
2023/01/09 08:16:46;;;;;;;8.55;4.43;;;;;;;7.09;100.00;99321.09;2615932;36;20050;-58
2023/01/09 08:19:17;;;;;;;16.08;4.82;;;;;;;7.18;100.00;99328.22;2615849;36;20030;-60
2023/01/09 08:21:45;;;;;;;11.25;4.32;;;;;;;7.16;100.00;99324.84;2615901;36;20034;-59
2023/01/09 08:24:14;;;;;;;8.98;4.20;;;;;;;7.27;100.00;99327.28;2614107;36;20035;-57
2023/01/09 08:26:42;;;;;;;14.27;4.00;;;;;;;7.28;100.00;99331.66;2615361;36;20041;-58
2023/01/09 08:29:11;;;;;;;13.27;4.30;;;;;;;7.25;100.00;99328.47;2616248;36;20696;-58
2023/01/09 08:31:39;;;;;;;10.02;4.25;;;;;;;7.23;100.00;99333.97;2616277;36;20992;-56
2023/01/09 08:34:09;;;;;;;9.57;4.47;;;;;;;7.31;100.00;99335.88;2615493;36;20046;-59
2023/01/09 08:36:40;;;;;;;11.73;4.53;;;;;;;7.31;100.00;99336.69;2613992;31;20549;-58
2023/01/09 08:39:09;;;;;;;10.45;5.30;;;;;;;7.22;100.00;99342.97;2615551;36;20030;-59
2023/01/09 08:47:08;;;;;;;8.98;4.53;;;;;;;7.27;100.00;99356.72;2615348;36;20431;-59
2023/01/09 08:49:38;;;;;;;12.23;5.18;;;;;;;7.24;100.00;99354.34;2615343;36;20034;-59
2023/01/09 08:52:09;;;;;;;12.02;5.50;;;;;;;7.22;100.00;99361.72;2614666;31;20037;-59
2023/01/09 08:54:38;;;;;;;10.65;5.25;;;;;;;7.42;100.00;99357.06;2614418;36;20069;-58
2023/01/09 08:57:07;;;;;;;12.93;5.30;;;;;;;7.58;100.00;99367.06;2615680;31;20049;-59
2023/01/09 08:59:36;;;;;;;10.30;5.50;;;;;;;7.40;100.00;99371.59;2615397;36;20045;-59
2023/01/09 09:02:04;;;;;;;11.88;5.50;;;;;;;7.46;100.00;99368.28;2615534;36;20023;-59
2023/01/09 09:04:33;;;;;;;8.23;4.68;;;;;;;7.44;100.00;99375.66;2615321;36;20042;-57
2023/01/09 09:07:01;;;;;;;12.30;5.28;;;;;;;7.57;100.00;99378.78;2616280;36;20035;-58
2023/01/09 09:09:32;;;;;;;8.60;5.00;;;;;;;7.53;100.00;99390.78;2616070;31;20027;-59
2023/01/09 09:12:00;;;;;;;10.05;5.18;;;;;;;7.85;100.00;99389.41;2616654;31;20307;-58
2023/01/09 09:17:09;;;;;;;7.03;4.55;;;;;;;7.69;100.00;99396.28;2616156;36;20081;-58
2023/01/09 09:19:38;;;;;;;9.30;4.75;;;;;;;7.60;100.00;99397.22;2615905;31;20045;-59
2023/01/09 09:22:06;;;;;;;11.83;5.27;;;;;;;7.60;100.00;99399.91;2616623;31;20023;-59
2023/01/09 09:24:37;;;;;;;8.07;5.13;;;;;;;7.63;100.00;99407.63;2615876;36;20302;-59
2023/01/09 09:27:06;;;;;;;10.10;5.22;;;;;;;7.69;100.00;99417.72;2615625;36;20034;-57
2023/01/09 09:29:35;;;;;;;12.48;5.50;;;;;;;7.51;100.00;99415.03;2616153;36;20586;-59
2023/01/09 09:32:03;;;;;;;8.38;5.57;;;;;;;7.65;100.00;99421.69;2615200;36;20035;-60
2023/01/09 09:35:01;;;;;;;11.37;7.40;;;;;;;7.60;100.00;99424.00;2618793;36;20492;-59
2023/01/09 09:37:29;;;;;;;11.98;6.40;;;;;;;7.69;100.00;99430.28;2619691;36;20041;-60
2023/01/09 09:39:58;;;;;;;8.63;6.30;;;;;;;7.68;100.00;99436.59;2618915;36;20042;-59
2023/01/09 09:45:42;;;;;;;12.10;6.50;;;;;;;8.00;100.00;99452.13;2618359;36;20045;-60
2023/01/09 09:48:29;;;;;;;11.32;6.13;;;;;;;8.16;100.00;99456.81;2619558;36;20539;-57
2023/01/09 09:51:42;;;;;;;10.65;6.18;;;;;;;8.20;100.00;99462.69;2618813;36;20037;-58
2023/01/09 09:54:16;;;;;;;10.05;6.03;;;;;;;8.27;100.00;99474.47;2619375;36;20420;-59
2023/01/09 09:56:52;;;;;;;13.50;6.03;;;;;;;8.35;100.00;99484.44;2618815;36;20042;-58
2023/01/09 09:59:24;;;;;;;11.93;6.00;;;;;;;8.44;100.00;99488.03;2618152;36;20042;-59
2023/01/09 10:02:01;;;;;;;11.38;4.95;;;;;;;8.42;100.00;99494.38;2619264;36;20048;-58
2023/01/09 10:04:34;;;;;;;14.15;4.82;;;;;;;8.52;100.00;99505.00;2619243;36;20037;-58
2023/01/09 10:07:08;;;;;;;12.80;5.30;;;;;;;8.52;100.00;99506.88;2620517;31;20030;-59
2023/01/09 10:09:47;;;;;;;14.13;4.22;;;;;;;8.47;100.00;99514.56;2619630;36;20034;-59
2023/01/09 10:12:26;;;;;;;10.02;4.43;;;;;;;8.39;100.00;99516.13;2618719;36;20069;-58
2023/01/09 10:14:55;;;;;;;15.40;5.25;;;;;;;8.39;100.00;99521.50;2619554;36;20034;-59
2023/01/09 10:17:44;;;;;;;9.13;4.55;;;;;;;8.32;100.00;99530.28;2619715;36;20022;-59
2023/01/09 10:20:38;;;;;;;12.50;4.50;;;;;;;8.34;100.00;99531.00;2618865;36;20743;-58
2023/01/09 10:23:26;;;;;;;9.70;3.67;;;;;;;8.24;100.00;99544.47;2619052;31;20038;-59
2023/01/09 10:26:01;;;;;;;11.07;3.63;;;;;;;8.26;100.00;99553.22;2619042;36;20413;-58
2023/01/09 10:31:29;;;;;;;9.23;3.65;;;;;;;8.39;100.00;99563.53;2619134;36;20610;-59
2023/01/09 10:34:11;;;;;;;5.45;3.55;;;;;;;8.36;100.00;99564.72;2618091;36;20038;-58
2023/01/09 10:36:59;;;;;;;9.25;3.33;;;;;;;8.46;100.00;99575.38;2619009;36;20030;-59
2023/01/09 10:39:33;;;;;;;5.15;2.60;;;;;;;8.46;100.00;99580.72;2619547;36;20037;-60
2023/01/09 10:42:10;;;;;;;6.15;2.65;;;;;;;8.41;100.00;99591.06;2619340;36;20041;-59
2023/01/09 10:44:45;;;;;;;8.48;3.35;;;;;;;8.42;100.00;99592.72;2619161;36;20045;-60
2023/01/09 10:47:19;;;;;;;5.78;2.90;;;;;;;8.47;100.00;99600.34;2618056;36;20069;-58
2023/01/09 10:49:50;;;;;;;4.45;2.22;;;;;;;8.63;100.00;99592.44;2617031;31;20034;-60
2023/01/09 10:52:21;;;;;;;7.93;2.65;;;;;;;8.59;100.00;99599.94;2619554;36;20026;-59
2023/01/09 10:54:57;;;;;;;10.32;2.45;;;;;;;8.52;100.00;99601.56;2616842;36;20500;-60
2023/01/09 10:57:43;;;;;;;7.70;2.22;;;;;;;8.54;100.00;99602.25;2618010;36;20513;-59
2023/01/09 11:00:21;;;;;;;5.97;1.98;;;;;;;8.59;100.00;99608.00;2617596;36;20038;-59
2023/01/09 11:02:53;;;;;;;6.22;1.50;;;;;;;8.68;100.00;99611.59;2619822;36;20447;-59
2023/01/09 11:05:24;;;;;;;5.13;1.67;;;;;;;8.71;100.00;99621.19;2619503;36;20037;-59
2023/01/09 11:07:57;;;;;;;8.35;1.63;;;;;;;8.80;100.00;99619.41;2619330;36;20030;-59
2023/01/09 11:10:46;;;;;;;8.82;1.60;;;;;;;8.85;100.00;99633.19;2618857;36;20049;-59
2023/01/09 11:13:19;;;;;;;8.63;1.73;;;;;;;9.01;100.00;99637.84;2619444;36;20038;-59
2023/01/09 11:16:00;;;;;;;9.88;1.92;;;;;;;9.04;100.00;99635.72;2619836;31;20334;-59
2023/01/09 11:18:30;;;;;;;7.50;1.60;;;;;;;9.02;100.00;99643.06;2615561;36;20042;-59
2023/01/09 11:21:14;;;;;;;11.15;2.97;;;;;;;9.23;100.00;99648.09;2619526;36;20033;-60
2023/01/09 11:23:43;;;;;;;11.30;1.58;;;;;;;9.16;100.00;99647.03;2618066;36;20038;-60
2023/01/09 11:27:22;;;;;;;8.90;1.67;;;;;;;9.13;100.00;99650.03;2620136;36;20598;-59
2023/01/09 11:30:09;;;;;;;9.98;1.70;;;;;;;9.20;100.00;99658.28;2619878;36;20022;-59
2023/01/09 11:32:38;;;;;;;7.05;1.70;;;;;;;9.28;100.00;99669.09;2619368;36;20038;-58
2023/01/09 11:35:08;;;;;;;7.65;1.80;;;;;;;9.22;100.00;99667.03;2619268;36;20535;-60
2023/01/09 11:37:36;;;;;;;15.75;2.05;;;;;;;9.29;100.00;99673.47;2620052;36;20034;-59
2023/01/09 11:40:05;;;;;;;10.40;2.00;;;;;;;9.49;100.00;99671.41;2618734;36;20034;-58
2023/01/09 11:45:33;;;;;;;6.88;2.00;;;;;;;9.42;100.00;99675.72;2618813;31;20030;-59
2023/01/09 11:48:03;;;;;;;12.23;1.65;;;;;;;9.42;100.00;99668.53;2616679;36;20060;-58
2023/01/09 11:50:33;;;;;;;10.02;1.75;;;;;;;9.32;100.00;99678.53;2619695;36;20038;-57
2023/01/09 11:53:15;;;;;;;14.10;2.10;;;;;;;9.38;100.00;99685.94;2619938;36;20039;-59
2023/01/09 11:55:44;;;;;;;10.75;2.08;;;;;;;9.47;100.00;99682.31;2619593;36;20034;-58
2023/01/09 11:58:17;;;;;;;;;;;;;;;9.43;100.00;99678.25;2619802;36;20038;-60
2023/01/09 12:00:59;;;;;;;11.68;2.08;;;;;;;9.47;100.00;99676.94;2620159;31;19950;-58
2023/01/09 12:03:45;;;;;;;6.07;1.70;;;;;;;9.39;100.00;99690.31;2618341;36;20037;-59
2023/01/09 12:06:22;;;;;;;10.55;1.90;;;;;;;9.54;100.00;99681.66;2619492;36;20034;-58
2023/01/09 12:08:58;;;;;;;9.00;1.73;;;;;;;9.67;100.00;99697.38;2620167;31;20030;-58
2023/01/09 12:11:41;;;;;;;10.02;2.53;;;;;;;9.62;100.00;99692.47;2619866;36;20069;-59
2023/01/09 12:14:31;;;;;;;10.15;2.15;;;;;;;9.58;100.00;99699.16;2619878;36;20037;-60
2023/01/09 12:17:18;;;;;;;10.40;2.25;;;;;;;9.59;100.00;99703.53;2619965;36;20038;-58
2023/01/09 12:20:19;;;;;;;14.90;1.63;;;;;;;9.61;100.00;99704.22;2619539;36;20026;-59
2023/01/09 12:22:56;;;;;;;11.38;2.15;;;;;;;9.69;100.00;99706.09;2620176;36;20022;-59